sensor_id;sensor_type;location;lat;lon;timestamp;pressure;altitude;pressure_sealevel;temperature;humidity
59289;BME280;45056;47.602;9.886;2023-05-20T00:01:44;92889.75;;;12.34;63.54
59289;BME280;45056;47.602;9.886;2023-05-20T00:04:12;92889.75;;;12.34;63.54
59289;BME280;45056;47.602;9.886;2023-05-20T00:06:40;92886.53;;;12.36;63.33
59289;BME280;45056;47.602;9.886;2023-05-20T00:09:08;92891.56;;;12.37;63.63
59289;BME280;45056;47.602;9.886;2023-05-20T00:11:37;92891.09;;;12.39;63.35
59289;BME280;45056;47.602;9.886;2023-05-20T00:14:05;92886.84;;;12.38;63.60
59289;BME280;45056;47.602;9.886;2023-05-20T00:16:34;92879.56;;;12.35;63.64
59289;BME280;45056;47.602;9.886;2023-05-20T00:19:02;92886.53;;;12.36;63.70
59289;BME280;45056;47.602;9.886;2023-05-20T00:21:30;92892.31;;;12.38;63.60
59289;BME280;45056;47.602;9.886;2023-05-20T00:23:59;92889.13;;;12.39;63.60
59289;BME280;45056;47.602;9.886;2023-05-20T00:26:28;92890.66;;;12.40;63.93
59289;BME280;45056;47.602;9.886;2023-05-20T00:28:57;92888.34;;;12.39;63.98
59289;BME280;45056;47.602;9.886;2023-05-20T00:31:25;92890.66;;;12.40;64.04
59289;BME280;45056;47.602;9.886;2023-05-20T00:33:53;92882.00;;;12.42;63.63
59289;BME280;45056;47.602;9.886;2023-05-20T00:36:21;92883.81;;;12.45;63.73
59289;BME280;45056;47.602;9.886;2023-05-20T00:38:49;92879.13;;;12.46;63.54
59289;BME280;45056;47.602;9.886;2023-05-20T00:41:17;92878.34;;;12.45;63.61
59289;BME280;45056;47.602;9.886;2023-05-20T00:43:47;92888.06;;;12.46;63.58
59289;BME280;45056;47.602;9.886;2023-05-20T00:46:16;92885.31;;;12.46;63.65
59289;BME280;45056;47.602;9.886;2023-05-20T00:48:44;92885.78;;;12.45;63.78
59289;BME280;45056;47.602;9.886;2023-05-20T00:51:13;92888.53;;;12.45;63.91
59289;BME280;45056;47.602;9.886;2023-05-20T00:53:42;92892.47;;;12.44;63.81
59289;BME280;45056;47.602;9.886;2023-05-20T00:56:12;92896.41;;;12.43;63.86
59289;BME280;45056;47.602;9.886;2023-05-20T00:58:40;92888.97;;;12.43;63.82
59289;BME280;45056;47.602;9.886;2023-05-20T01:01:08;92892.91;;;12.42;63.90
59289;BME280;45056;47.602;9.886;2023-05-20T01:03:39;92885.50;;;12.43;63.77
59289;BME280;45056;47.602;9.886;2023-05-20T01:06:07;92878.50;;;12.41;63.65
59289;BME280;45056;47.602;9.886;2023-05-20T01:08:36;92877.13;;;12.37;63.82
59289;BME280;45056;47.602;9.886;2023-05-20T01:11:07;92871.09;;;12.33;64.08
59289;BME280;45056;47.602;9.886;2023-05-20T01:13:43;92876.25;;;12.31;63.90
59289;BME280;45056;47.602;9.886;2023-05-20T01:16:17;92873.94;;;12.29;64.05
59289;BME280;45056;47.602;9.886;2023-05-20T01:18:50;92880.31;;;12.26;64.14
59289;BME280;45056;47.602;9.886;2023-05-20T01:21:22;92886.25;;;12.24;64.29
59289;BME280;45056;47.602;9.886;2023-05-20T01:23:52;92890.63;;;12.22;64.31
59289;BME280;45056;47.602;9.886;2023-05-20T01:26:21;92880.91;;;12.21;64.37
59289;BME280;45056;47.602;9.886;2023-05-20T01:28:53;92880.19;;;12.20;64.35
59289;BME280;45056;47.602;9.886;2023-05-20T01:31:26;92872.75;;;12.21;64.37
59289;BME280;45056;47.602;9.886;2023-05-20T01:33:59;92873.66;;;12.18;64.30
59289;BME280;45056;47.602;9.886;2023-05-20T01:36:29;92871.84;;;12.15;64.36
59289;BME280;45056;47.602;9.886;2023-05-20T01:39:01;92876.97;;;12.12;64.43
59289;BME280;45056;47.602;9.886;2023-05-20T01:41:34;92875.91;;;12.10;64.72
59289;BME280;45056;47.602;9.886;2023-05-20T01:44:04;92869.84;;;12.06;64.85
59289;BME280;45056;47.602;9.886;2023-05-20T01:46:32;92865.31;;;12.03;64.94
59289;BME280;45056;47.602;9.886;2023-05-20T01:49:00;92865.31;;;12.03;64.84
59289;BME280;45056;47.602;9.886;2023-05-20T01:51:29;92854.84;;;12.01;65.01
59289;BME280;45056;47.602;9.886;2023-05-20T01:54:00;92862.28;;;12.01;64.82
59289;BME280;45056;47.602;9.886;2023-05-20T01:56:28;92861.47;;;12.00;64.78
59289;BME280;45056;47.602;9.886;2023-05-20T01:58:57;92859.22;;;11.98;64.81
59289;BME280;45056;47.602;9.886;2023-05-20T02:01:25;92861.63;;;11.96;65.09
59289;BME280;45056;47.602;9.886;2023-05-20T02:03:53;92854.66;;;11.95;65.19
59289;BME280;45056;47.602;9.886;2023-05-20T02:06:21;92850.88;;;11.93;65.32
59289;BME280;45056;47.602;9.886;2023-05-20T02:08:49;92838.44;;;11.92;65.25
59289;BME280;45056;47.602;9.886;2023-05-20T02:11:18;92838.91;;;11.90;65.13
59289;BME280;45056;47.602;9.886;2023-05-20T02:13:48;92842.53;;;11.87;65.08
59289;BME280;45056;47.602;9.886;2023-05-20T02:16:16;92848.00;;;11.87;65.18
59289;BME280;45056;47.602;9.886;2023-05-20T02:18:45;92838.59;;;11.88;65.19
59289;BME280;45056;47.602;9.886;2023-05-20T02:21:13;92846.00;;;11.88;65.13
59289;BME280;45056;47.602;9.886;2023-05-20T02:23:41;92849.50;;;11.88;65.22
59289;BME280;45056;47.602;9.886;2023-05-20T02:26:09;92846.91;;;11.84;65.42
59289;BME280;45056;47.602;9.886;2023-05-20T02:28:38;92845.53;;;11.80;65.68
59289;BME280;45056;47.602;9.886;2023-05-20T02:31:12;92837.66;;;11.73;65.56
59289;BME280;45056;47.602;9.886;2023-05-20T02:33:40;92835.53;;;11.67;65.61
59289;BME280;45056;47.602;9.886;2023-05-20T02:36:08;92828.56;;;11.66;65.71
59289;BME280;45056;47.602;9.886;2023-05-20T02:38:36;92832.63;;;11.62;65.76
59289;BME280;45056;47.602;9.886;2023-05-20T02:41:04;92833.22;;;11.57;65.74
59289;BME280;45056;47.602;9.886;2023-05-20T02:43:32;92844.25;;;11.53;65.77
59289;BME280;45056;47.602;9.886;2023-05-20T02:46:03;92842.44;;;11.50;65.94
59289;BME280;45056;47.602;9.886;2023-05-20T02:48:31;92834.13;;;11.44;66.17
59289;BME280;45056;47.602;9.886;2023-05-20T02:50:59;92833.03;;;11.42;66.22
59289;BME280;45056;47.602;9.886;2023-05-20T02:53:27;92837.09;;;11.37;66.29
59289;BME280;45056;47.602;9.886;2023-05-20T02:55:56;92842.69;;;11.33;66.47
59289;BME280;45056;47.602;9.886;2023-05-20T02:58:25;92834.66;;;11.30;66.71
59289;BME280;45056;47.602;9.886;2023-05-20T03:00:53;92832.41;;;11.28;66.71
59289;BME280;45056;47.602;9.886;2023-05-20T03:03:25;92832.41;;;11.28;66.75
59289;BME280;45056;47.602;9.886;2023-05-20T03:05:53;92826.94;;;11.28;66.95
59289;BME280;45056;47.602;9.886;2023-05-20T03:08:22;92820.28;;;11.29;66.93
59289;BME280;45056;47.602;9.886;2023-05-20T03:10:50;92815.16;;;11.31;66.83
59289;BME280;45056;47.602;9.886;2023-05-20T03:13:18;92811.97;;;11.33;66.80
59289;BME280;45056;47.602;9.886;2023-05-20T03:15:46;92806.81;;;11.35;66.68
59289;BME280;45056;47.602;9.886;2023-05-20T03:18:15;92826.97;;;11.37;66.61
59289;BME280;45056;47.602;9.886;2023-05-20T03:20:45;92834.72;;;11.39;66.71
59289;BME280;45056;47.602;9.886;2023-05-20T03:23:13;92848.31;;;11.39;66.68
59289;BME280;45056;47.602;9.886;2023-05-20T03:25:41;92836.66;;;11.38;66.78
59289;BME280;45056;47.602;9.886;2023-05-20T03:28:09;92816.38;;;11.39;66.67
59289;BME280;45056;47.602;9.886;2023-05-20T03:30:38;92820.63;;;11.40;66.56
59289;BME280;45056;47.602;9.886;2023-05-20T03:33:06;92822.59;;;11.40;66.45
59289;BME280;45056;47.602;9.886;2023-05-20T03:35:34;92813.34;;;11.37;66.28
59289;BME280;45056;47.602;9.886;2023-05-20T03:38:03;92809.13;;;11.36;66.33
59289;BME280;45056;47.602;9.886;2023-05-20T03:40:32;92807.59;;;11.35;66.28
59289;BME280;45056;47.602;9.886;2023-05-20T03:43:00;92812.28;;;11.35;66.45
59289;BME280;45056;47.602;9.886;2023-05-20T03:45:28;92820.59;;;11.31;66.63
59289;BME280;45056;47.602;9.886;2023-05-20T03:47:56;92819.69;;;11.25;66.51
59289;BME280;45056;47.602;9.886;2023-05-20T03:50:24;92820.25;;;11.20;66.69
59289;BME280;45056;47.602;9.886;2023-05-20T03:52:52;92830.81;;;11.18;66.72
59289;BME280;45056;47.602;9.886;2023-05-20T03:55:21;92828.88;;;11.18;66.76
59289;BME280;45056;47.602;9.886;2023-05-20T03:57:50;92822.97;;;11.20;66.65
59289;BME280;45056;47.602;9.886;2023-05-20T04:00:18;92824.16;;;11.19;66.52
59289;BME280;45056;47.602;9.886;2023-05-20T04:02:46;92821.75;;;11.21;66.26
59289;BME280;45056;47.602;9.886;2023-05-20T04:05:14;92813.91;;;11.23;66.47
59289;BME280;45056;47.602;9.886;2023-05-20T04:07:42;92816.19;;;11.24;66.32
59289;BME280;45056;47.602;9.886;2023-05-20T04:10:10;92811.81;;;11.27;66.32
59289;BME280;45056;47.602;9.886;2023-05-20T04:12:40;92812.88;;;11.30;66.32
59289;BME280;45056;47.602;9.886;2023-05-20T04:15:09;92819.81;;;11.31;66.21
59289;BME280;45056;47.602;9.886;2023-05-20T04:17:39;92827.38;;;11.26;66.39
59289;BME280;45056;47.602;9.886;2023-05-20T04:20:09;92826.34;;;11.24;66.50
59289;BME280;45056;47.602;9.886;2023-05-20T04:22:37;92817.81;;;11.22;66.52
59289;BME280;45056;47.602;9.886;2023-05-20T04:25:06;92821.75;;;11.21;66.72
59289;BME280;45056;47.602;9.886;2023-05-20T04:27:35;92823.28;;;11.22;66.79
59289;BME280;45056;47.602;9.886;2023-05-20T04:30:07;92812.56;;;11.28;66.67
59289;BME280;45056;47.602;9.886;2023-05-20T04:32:35;92820.59;;;11.31;66.65
59289;BME280;45056;47.602;9.886;2023-05-20T04:35:04;92815.47;;;11.33;66.76
59289;BME280;45056;47.602;9.886;2023-05-20T04:37:37;92819.69;;;11.34;66.73
59289;BME280;45056;47.602;9.886;2023-05-20T04:40:06;92818.03;;;11.37;66.94
59289;BME280;45056;47.602;9.886;2023-05-20T04:42:34;92823.22;;;11.44;66.51
59289;BME280;45056;47.602;9.886;2023-05-20T04:45:03;92815.97;;;11.50;66.41
59289;BME280;45056;47.602;9.886;2023-05-20T04:47:34;92809.47;;;11.57;66.37
59289;BME280;45056;47.602;9.886;2023-05-20T04:50:05;92809.78;;;11.68;65.91
59289;BME280;45056;47.602;9.886;2023-05-20T04:52:36;92804.03;;;11.85;65.52
59289;BME280;45056;47.602;9.886;2023-05-20T04:55:06;92802.00;;;12.17;65.37
59289;BME280;45056;47.602;9.886;2023-05-20T04:57:36;92794.50;;;13.50;62.70
59289;BME280;45056;47.602;9.886;2023-05-20T05:00:10;92798.47;;;15.42;57.98
59289;BME280;45056;47.602;9.886;2023-05-20T05:02:39;92802.53;;;16.98;51.88
59289;BME280;45056;47.602;9.886;2023-05-20T05:05:07;92794.66;;;17.93;49.92
59289;BME280;45056;47.602;9.886;2023-05-20T05:07:35;92801.53;;;18.98;47.01
59289;BME280;45056;47.602;9.886;2023-05-20T05:10:04;92796.50;;;18.96;46.49
59289;BME280;45056;47.602;9.886;2023-05-20T05:12:33;92795.34;;;18.37;47.32
59289;BME280;45056;47.602;9.886;2023-05-20T05:15:01;92800.53;;;18.12;48.24
59289;BME280;45056;47.602;9.886;2023-05-20T05:17:30;92796.50;;;18.96;46.53
59289;BME280;45056;47.602;9.886;2023-05-20T05:19:58;92795.75;;;20.46;43.79
59289;BME280;45056;47.602;9.886;2023-05-20T05:22:26;92795.63;;;21.77;39.90
59289;BME280;45056;47.602;9.886;2023-05-20T05:24:54;92796.72;;;21.94;38.61
59289;BME280;45056;47.602;9.886;2023-05-20T05:27:24;92802.75;;;21.37;40.16
59289;BME280;45056;47.602;9.886;2023-05-20T05:29:52;92797.34;;;20.83;40.96
59289;BME280;45056;47.602;9.886;2023-05-20T05:32:20;92797.09;;;20.33;41.86
59289;BME280;45056;47.602;9.886;2023-05-20T05:34:49;92803.75;;;19.73;42.91
59289;BME280;45056;47.602;9.886;2023-05-20T05:37:17;92796.78;;;19.27;44.50
59289;BME280;45056;47.602;9.886;2023-05-20T05:39:46;92797.47;;;18.82;45.22
59289;BME280;45056;47.602;9.886;2023-05-20T05:42:14;92787.84;;;18.37;46.69
59289;BME280;45056;47.602;9.886;2023-05-20T05:44:42;92803.00;;;18.04;47.62
59289;BME280;45056;47.602;9.886;2023-05-20T05:47:11;92803.75;;;17.61;48.34
59289;BME280;45056;47.602;9.886;2023-05-20T05:49:39;92807.41;;;17.14;49.34
59289;BME280;45056;47.602;9.886;2023-05-20T05:52:08;92811.78;;;16.74;50.29
59289;BME280;45056;47.602;9.886;2023-05-20T05:54:36;92813.69;;;16.41;51.21
59289;BME280;45056;47.602;9.886;2023-05-20T05:57:04;92809.19;;;16.18;52.01
59289;BME280;45056;47.602;9.886;2023-05-20T05:59:33;92812.81;;;15.88;52.64
59289;BME280;45056;47.602;9.886;2023-05-20T06:02:01;92799.06;;;15.67;53.48
59289;BME280;45056;47.602;9.886;2023-05-20T06:04:29;92793.91;;;15.54;54.51
59289;BME280;45056;47.602;9.886;2023-05-20T06:06:58;92788.41;;;15.54;54.57
59289;BME280;45056;47.602;9.886;2023-05-20T06:09:27;92791.25;;;15.60;54.34
59289;BME280;45056;47.602;9.886;2023-05-20T06:11:55;92796.13;;;15.56;54.64
59289;BME280;45056;47.602;9.886;2023-05-20T06:14:23;92795.69;;;15.57;54.46
59289;BME280;45056;47.602;9.886;2023-05-20T06:16:51;92790.31;;;15.48;54.89
59289;BME280;45056;47.602;9.886;2023-05-20T06:19:19;92783.25;;;15.41;55.38
59289;BME280;45056;47.602;9.886;2023-05-20T06:21:47;92789.16;;;15.55;55.31
59289;BME280;45056;47.602;9.886;2023-05-20T06:24:15;92788.56;;;15.66;54.88
59289;BME280;45056;47.602;9.886;2023-05-20T06:26:45;92790.75;;;15.62;54.93
59289;BME280;45056;47.602;9.886;2023-05-20T06:29:15;92781.78;;;15.61;54.97
59289;BME280;45056;47.602;9.886;2023-05-20T06:31:43;92780.69;;;15.73;54.82
59289;BME280;45056;47.602;9.886;2023-05-20T06:34:11;92773.94;;;15.90;54.47
59289;BME280;45056;47.602;9.886;2023-05-20T06:36:39;92774.28;;;15.97;54.35
59289;BME280;45056;47.602;9.886;2023-05-20T06:39:07;92766.50;;;15.96;53.79
59289;BME280;45056;47.602;9.886;2023-05-20T06:41:38;92763.78;;;15.96;53.91
59289;BME280;45056;47.602;9.886;2023-05-20T06:44:07;92766.44;;;16.11;53.90
59289;BME280;45056;47.602;9.886;2023-05-20T06:46:35;92766.53;;;16.43;53.36
59289;BME280;45056;47.602;9.886;2023-05-20T06:49:03;92761.56;;;16.47;53.02
59289;BME280;45056;47.602;9.886;2023-05-20T06:51:31;92770.50;;;16.42;53.06
59289;BME280;45056;47.602;9.886;2023-05-20T06:53:59;92768.00;;;16.38;53.38
59289;BME280;45056;47.602;9.886;2023-05-20T06:56:27;92775.81;;;16.46;53.38
59289;BME280;45056;47.602;9.886;2023-05-20T06:58:55;92775.81;;;16.46;53.37
59289;BME280;45056;47.602;9.886;2023-05-20T07:01:25;92774.50;;;16.41;53.40
59289;BME280;45056;47.602;9.886;2023-05-20T07:03:53;92777.16;;;16.35;53.44
59289;BME280;45056;47.602;9.886;2023-05-20T07:06:21;92779.88;;;16.29;53.79
59289;BME280;45056;47.602;9.886;2023-05-20T07:08:49;92770.00;;;16.17;53.91
59289;BME280;45056;47.602;9.886;2023-05-20T07:11:17;92775.38;;;16.06;54.30
59289;BME280;45056;47.602;9.886;2023-05-20T07:13:45;92767.00;;;15.94;54.54
59289;BME280;45056;47.602;9.886;2023-05-20T07:16:13;92768.13;;;15.87;54.83
59289;BME280;45056;47.602;9.886;2023-05-20T07:18:42;92763.13;;;15.86;55.07
59289;BME280;45056;47.602;9.886;2023-05-20T07:21:10;92769.94;;;15.91;55.12
59289;BME280;45056;47.602;9.886;2023-05-20T07:23:38;92759.31;;;15.98;54.91
59289;BME280;45056;47.602;9.886;2023-05-20T07:26:06;92758.44;;;16.07;55.02
59289;BME280;45056;47.602;9.886;2023-05-20T07:28:34;92757.72;;;16.12;54.94
59289;BME280;45056;47.602;9.886;2023-05-20T07:31:02;92758.75;;;16.15;54.48
59289;BME280;45056;47.602;9.886;2023-05-20T07:33:31;92749.97;;;16.11;54.65
59289;BME280;45056;47.602;9.886;2023-05-20T07:36:00;92750.41;;;16.04;54.51
59289;BME280;45056;47.602;9.886;2023-05-20T07:38:28;92741.34;;;15.97;54.88
59289;BME280;45056;47.602;9.886;2023-05-20T07:40:56;92745.81;;;15.95;54.85
59289;BME280;45056;47.602;9.886;2023-05-20T07:43:24;92748.34;;;15.98;55.15
59289;BME280;45056;47.602;9.886;2023-05-20T07:45:52;92749.91;;;16.05;55.27
59289;BME280;45056;47.602;9.886;2023-05-20T07:48:20;92744.75;;;16.13;54.90
59289;BME280;45056;47.602;9.886;2023-05-20T07:50:48;92753.53;;;16.17;54.72
59289;BME280;45056;47.602;9.886;2023-05-20T07:53:18;92755.81;;;16.19;54.64
59289;BME280;45056;47.602;9.886;2023-05-20T07:55:46;92754.06;;;16.21;54.38
59289;BME280;45056;47.602;9.886;2023-05-20T07:58:14;92746.88;;;16.24;54.07
59289;BME280;45056;47.602;9.886;2023-05-20T08:00:43;92740.34;;;16.21;53.90
59289;BME280;45056;47.602;9.886;2023-05-20T08:03:11;92747.28;;;16.17;53.98
59289;BME280;45056;47.602;9.886;2023-05-20T08:05:40;92751.75;;;16.14;54.14
59289;BME280;45056;47.602;9.886;2023-05-20T08:08:08;92741.28;;;16.12;54.51
59289;BME280;45056;47.602;9.886;2023-05-20T08:10:38;92747.28;;;16.17;54.63
59289;BME280;45056;47.602;9.886;2023-05-20T08:13:06;92740.63;;;16.23;55.11
59289;BME280;45056;47.602;9.886;2023-05-20T08:15:34;92747.75;;;16.36;55.18
59289;BME280;45056;47.602;9.886;2023-05-20T08:18:03;92737.91;;;16.50;54.61
59289;BME280;45056;47.602;9.886;2023-05-20T08:20:31;92743.22;;;16.59;54.33
59289;BME280;45056;47.602;9.886;2023-05-20T08:22:59;92748.53;;;16.68;54.23
59289;BME280;45056;47.602;9.886;2023-05-20T08:25:27;92750.63;;;16.79;54.12
59289;BME280;45056;47.602;9.886;2023-05-20T08:27:56;92750.47;;;16.88;53.73
59289;BME280;45056;47.602;9.886;2023-05-20T08:30:26;92753.75;;;16.93;53.69
59289;BME280;45056;47.602;9.886;2023-05-20T08:32:54;92751.53;;;16.97;53.39
59289;BME280;45056;47.602;9.886;2023-05-20T08:35:23;92747.84;;;17.00;53.21
59289;BME280;45056;47.602;9.886;2023-05-20T08:37:51;92743.09;;;17.00;53.07
59289;BME280;45056;47.602;9.886;2023-05-20T08:40:21;92737.31;;;16.98;53.08
59289;BME280;45056;47.602;9.886;2023-05-20T08:42:50;92730.03;;;16.95;53.00
59289;BME280;45056;47.602;9.886;2023-05-20T08:45:20;92732.03;;;16.95;53.09
59289;BME280;45056;47.602;9.886;2023-05-20T08:47:53;92739.50;;;16.94;53.38
59289;BME280;45056;47.602;9.886;2023-05-20T08:50:21;92741.78;;;16.96;53.33
59289;BME280;45056;47.602;9.886;2023-05-20T08:52:49;92732.03;;;16.95;53.16
59289;BME280;45056;47.602;9.886;2023-05-20T08:55:23;92736.75;;;16.88;53.03
59289;BME280;45056;47.602;9.886;2023-05-20T08:57:53;92746.91;;;16.82;52.89
59289;BME280;45056;47.602;9.886;2023-05-20T09:00:23;92736.63;;;16.77;53.17
59289;BME280;45056;47.602;9.886;2023-05-20T09:02:55;92734.13;;;16.73;53.48
59289;BME280;45056;47.602;9.886;2023-05-20T09:05:23;92735.56;;;16.69;53.50
59289;BME280;45056;47.602;9.886;2023-05-20T09:07:51;92729.81;;;16.67;53.70
59289;BME280;45056;47.602;9.886;2023-05-20T09:10:19;92737.28;;;16.66;54.18
59289;BME280;45056;47.602;9.886;2023-05-20T09:12:48;92729.75;;;16.61;53.79
59289;BME280;45056;47.602;9.886;2023-05-20T09:15:16;92733.72;;;16.60;53.97
59289;BME280;45056;47.602;9.886;2023-05-20T09:17:48;92734.78;;;16.63;53.87
59289;BME280;45056;47.602;9.886;2023-05-20T09:20:16;92731.31;;;16.68;54.13
59289;BME280;45056;47.602;9.886;2023-05-20T09:22:51;92738.13;;;16.78;54.14
59289;BME280;45056;47.602;9.886;2023-05-20T09:25:20;92737.41;;;16.83;53.67
59289;BME280;45056;47.602;9.886;2023-05-20T09:27:49;92733.00;;;16.92;53.73
59289;BME280;45056;47.602;9.886;2023-05-20T09:30:18;92738.00;;;16.93;53.76
59289;BME280;45056;47.602;9.886;2023-05-20T09:32:53;92738.25;;;16.90;53.16
59289;BME280;45056;47.602;9.886;2023-05-20T09:35:21;92737.72;;;16.85;53.50
59289;BME280;45056;47.602;9.886;2023-05-20T09:37:51;92732.47;;;16.87;53.58
59289;BME280;45056;47.602;9.886;2023-05-20T09:40:23;92733.00;;;16.92;53.29
59289;BME280;45056;47.602;9.886;2023-05-20T09:42:55;92740.28;;;16.95;53.26
59289;BME280;45056;47.602;9.886;2023-05-20T09:45:26;92736.75;;;16.94;53.22
59289;BME280;45056;47.602;9.886;2023-05-20T09:47:56;92735.78;;;16.97;53.19
59289;BME280;45056;47.602;9.886;2023-05-20T09:50:24;92738.59;;;17.03;53.79
59289;BME280;45056;47.602;9.886;2023-05-20T09:52:54;92730.16;;;17.12;53.71
59289;BME280;45056;47.602;9.886;2023-05-20T09:55:24;92729.50;;;17.23;53.75
59289;BME280;45056;47.602;9.886;2023-05-20T09:57:52;92726.78;;;17.29;53.41
59289;BME280;45056;47.602;9.886;2023-05-20T10:00:21;92727.31;;;17.33;53.34
59289;BME280;45056;47.602;9.886;2023-05-20T10:02:50;92724.09;;;17.40;53.53
59289;BME280;45056;47.602;9.886;2023-05-20T10:05:23;92724.66;;;17.50;53.93
59289;BME280;45056;47.602;9.886;2023-05-20T10:11:31;92726.50;;;17.65;53.48
59289;BME280;45056;47.602;9.886;2023-05-20T10:14:27;92718.78;;;17.74;53.98
59289;BME280;45056;47.602;9.886;2023-05-20T10:17:11;92722.84;;;17.85;53.64
59289;BME280;45056;47.602;9.886;2023-05-20T10:19:44;92717.34;;;17.96;53.56
59289;BME280;45056;47.602;9.886;2023-05-20T10:22:14;92717.16;;;18.06;53.52
59289;BME280;45056;47.602;9.886;2023-05-20T10:24:58;92715.91;;;18.07;52.73
59289;BME280;45056;47.602;9.886;2023-05-20T10:27:27;92712.16;;;18.04;52.67
59289;BME280;45056;47.602;9.886;2023-05-20T10:29:56;92714.41;;;18.06;53.12
59289;BME280;45056;47.602;9.886;2023-05-20T10:32:25;92710.41;;;18.07;52.67
59289;BME280;45056;47.602;9.886;2023-05-20T10:34:58;92700.91;;;18.08;52.99
59289;BME280;45056;47.602;9.886;2023-05-20T10:37:33;92699.94;;;18.11;53.36
59289;BME280;45056;47.602;9.886;2023-05-20T10:40:10;92693.69;;;18.16;53.95
59289;BME280;45056;47.602;9.886;2023-05-20T10:42:40;92690.94;;;18.27;54.13
59289;BME280;45056;47.602;9.886;2023-05-20T10:45:11;92694.97;;;18.38;54.09
59289;BME280;45056;47.602;9.886;2023-05-20T10:47:53;92694.75;;;18.47;53.36
59289;BME280;45056;47.602;9.886;2023-05-20T10:50:26;92691.50;;;18.54;53.11
59289;BME280;45056;47.602;9.886;2023-05-20T10:53:03;92690.50;;;18.63;53.19
59289;BME280;45056;47.602;9.886;2023-05-20T10:55:35;92699.00;;;18.71;53.24
59289;BME280;45056;47.602;9.886;2023-05-20T10:58:05;92699.25;;;18.79;53.01
59289;BME280;45056;47.602;9.886;2023-05-20T11:00:34;92695.25;;;18.91;53.06
59289;BME280;45056;47.602;9.886;2023-05-20T11:03:03;92687.25;;;19.05;52.74
59289;BME280;45056;47.602;9.886;2023-05-20T11:05:33;92691.72;;;19.25;52.54
59289;BME280;45056;47.602;9.886;2023-05-20T11:08:06;92691.97;;;19.32;51.50
59289;BME280;45056;47.602;9.886;2023-05-20T11:10:35;92691.72;;;19.30;51.69
59289;BME280;45056;47.602;9.886;2023-05-20T11:13:04;92692.22;;;19.29;51.61
59289;BME280;45056;47.602;9.886;2023-05-20T11:15:34;92693.75;;;19.24;52.29
59289;BME280;45056;47.602;9.886;2023-05-20T11:18:03;92689.25;;;19.21;52.13
59289;BME280;45056;47.602;9.886;2023-05-20T11:20:31;92686.97;;;19.20;52.08
59289;BME280;45056;47.602;9.886;2023-05-20T11:23:01;92683.97;;;19.17;51.61
59289;BME280;45056;47.602;9.886;2023-05-20T11:25:31;92687.25;;;19.10;51.12
59289;BME280;45056;47.602;9.886;2023-05-20T11:27:59;92678.97;;;19.10;51.05
59289;BME280;45056;47.602;9.886;2023-05-20T11:30:29;92679.72;;;19.16;51.40
59289;BME280;45056;47.602;9.886;2023-05-20T11:32:59;92686.97;;;19.25;51.50
59289;BME280;45056;47.602;9.886;2023-05-20T11:35:30;92682.44;;;19.39;51.35
59289;BME280;45056;47.602;9.886;2023-05-20T11:38:03;92680.13;;;19.60;51.68
59289;BME280;45056;47.602;9.886;2023-05-20T11:40:35;92680.53;;;19.82;51.12
59289;BME280;45056;47.602;9.886;2023-05-20T11:43:03;92675.22;;;19.95;50.98
59289;BME280;45056;47.602;9.886;2023-05-20T11:45:39;92677.97;;;20.01;50.49
59289;BME280;45056;47.602;9.886;2023-05-20T11:48:08;92676.16;;;20.09;49.67
59289;BME280;45056;47.602;9.886;2023-05-20T11:50:39;92661.06;;;20.16;49.07
59289;BME280;45056;47.602;9.886;2023-05-20T11:53:10;92667.53;;;20.24;48.26
59289;BME280;45056;47.602;9.886;2023-05-20T11:55:46;92659.22;;;20.30;47.99
59289;BME280;45056;47.602;9.886;2023-05-20T11:58:19;92653.44;;;20.33;48.40
59289;BME280;45056;47.602;9.886;2023-05-20T12:00:48;92649.13;;;20.38;48.41
59289;BME280;45056;47.602;9.886;2023-05-20T12:03:16;92656.38;;;20.41;48.80
59289;BME280;45056;47.602;9.886;2023-05-20T12:05:45;92653.59;;;20.47;49.00
59289;BME280;45056;47.602;9.886;2023-05-20T12:08:13;92650.22;;;20.60;49.13
59289;BME280;45056;47.602;9.886;2023-05-20T12:10:42;92655.44;;;20.69;48.21
59289;BME280;45056;47.602;9.886;2023-05-20T12:13:11;92652.34;;;20.79;48.99
59289;BME280;45056;47.602;9.886;2023-05-20T12:15:39;92656.06;;;20.87;48.84
59289;BME280;45056;47.602;9.886;2023-05-20T12:18:07;92647.22;;;20.94;48.57
59289;BME280;45056;47.602;9.886;2023-05-20T12:20:36;92652.69;;;21.00;49.09
59289;BME280;45056;47.602;9.886;2023-05-20T12:23:04;92643.94;;;20.96;46.38
59289;BME280;45056;47.602;9.886;2023-05-20T12:25:32;92643.41;;;20.97;46.33
59289;BME280;45056;47.602;9.886;2023-05-20T12:28:01;92640.38;;;21.01;46.17
59289;BME280;45056;47.602;9.886;2023-05-20T12:30:30;92637.06;;;21.02;46.43
59289;BME280;45056;47.602;9.886;2023-05-20T12:32:58;92646.94;;;20.98;45.75
59289;BME280;45056;47.602;9.886;2023-05-20T12:35:36;92643.72;;;20.94;45.60
59289;BME280;45056;47.602;9.886;2023-05-20T12:38:06;92632.66;;;20.94;46.12
59289;BME280;45056;47.602;9.886;2023-05-20T12:40:36;92639.50;;;20.87;46.37
59289;BME280;45056;47.602;9.886;2023-05-20T12:43:04;92633.28;;;20.75;46.83
59289;BME280;45056;47.602;9.886;2023-05-20T12:45:34;92632.13;;;20.65;46.97
59289;BME280;45056;47.602;9.886;2023-05-20T12:48:02;92627.13;;;20.57;47.11
59289;BME280;45056;47.602;9.886;2023-05-20T12:50:31;92623.63;;;20.57;47.34
59289;BME280;45056;47.602;9.886;2023-05-20T12:52:59;92632.13;;;20.65;47.80
59289;BME280;45056;47.602;9.886;2023-05-20T12:55:27;92626.50;;;20.70;47.53
59289;BME280;45056;47.602;9.886;2023-05-20T12:57:55;92626.97;;;20.74;47.81
59289;BME280;45056;47.602;9.886;2023-05-20T13:00:23;92621.19;;;20.78;47.63
59289;BME280;45056;47.602;9.886;2023-05-20T13:02:52;92619.38;;;20.86;47.88
59289;BME280;45056;47.602;9.886;2023-05-20T13:05:21;92605.72;;;20.94;47.71
59289;BME280;45056;47.602;9.886;2023-05-20T13:07:49;92610.91;;;21.03;47.63
59289;BME280;45056;47.602;9.886;2023-05-20T13:10:17;92616.41;;;21.09;47.07
59289;BME280;45056;47.602;9.886;2023-05-20T13:12:45;92609.56;;;21.16;46.57
59289;BME280;45056;47.602;9.886;2023-05-20T13:15:13;92605.47;;;21.23;46.25